Time;durP1;ratioP1;P1;durP2;ratioP2;P2;SDS_P1;SDS_P2;PMS_P1;PMS_P2;Temp;Humidity;BMP_temperature;BMP_pressure;BME280_temperature;BME280_humidity;BME280_pressure;Samples;Min_cycle;Max_cycle;Signal;HPM_P1;HPM_P2
2022/08/15 00:00:58;;;;;;;6.77;3.70;;;;;;;;;;5058081;28;46449;-66
2022/08/15 00:03:28;;;;;;;7.67;3.80;;;19.90;21.50;;;;;;5060681;28;46413;-66
2022/08/15 00:05:55;;;;;;;9.40;4.00;;;20.10;21.70;;;;;;5059903;28;46377;-66
2022/08/15 00:08:21;;;;;;;9.73;3.93;;;19.90;24.40;;;;;;5058379;28;46409;-66
2022/08/15 00:10:48;;;;;;;8.63;3.90;;;20.30;21.80;;;;;;5061027;28;46971;-67
2022/08/15 00:13:18;;;;;;;6.17;4.03;;;20.40;24.00;;;;;;5060719;28;46488;-66
2022/08/15 00:15:46;;;;;;;11.20;4.27;;;20.00;30.60;;;;;;5057009;28;46381;-66
2022/08/15 00:18:13;;;;;;;8.77;4.03;;;20.00;29.30;;;;;;5058258;28;46580;-67
2022/08/15 00:20:39;;;;;;;10.77;3.90;;;20.30;23.10;;;;;;5059845;28;46605;-67
2022/08/15 00:23:09;;;;;;;11.30;3.90;;;20.10;28.30;;;;;;5058453;28;48059;-67
2022/08/15 00:25:37;;;;;;;14.63;3.97;;;20.40;32.10;;;;;;5059286;28;46374;-66
2022/08/15 00:28:05;;;;;;;8.33;3.90;;;20.50;31.70;;;;;;5057841;28;46423;-66
2022/08/15 00:30:31;;;;;;;9.90;4.43;;;;;;;;;;5059877;28;46494;-66
2022/08/15 00:32:57;;;;;;;9.10;3.83;;;19.90;21.50;;;;;;5060156;28;46635;-66
2022/08/15 00:35:36;;;;;;;8.50;4.37;;;;;;;;;;5058900;28;46568;-66
2022/08/15 00:38:04;;;;;;;9.47;3.10;;;20.20;29.80;;;;;;5059326;28;45800;-66
2022/08/15 00:40:30;;;;;;;6.20;4.23;;;20.10;31.80;;;;;;5058906;28;46439;-66
2022/08/15 00:42:56;;;;;;;10.10;4.00;;;;;;;;;;5055461;28;46386;-66
2022/08/15 00:45:22;;;;;;;5.20;3.80;;;20.30;21.80;;;;;;5059339;28;46026;-66
2022/08/15 00:48:41;;;;;;;6.53;3.80;;;20.60;32.90;;;;;;5056735;28;46519;-66
2022/08/15 00:50:35;;;;;;;6.60;4.00;;;20.40;21.90;;;;;;5059546;28;46474;-66
2022/08/15 00:53:09;;;;;;;8.80;3.40;;;20.40;21.90;;;;;;5058854;28;47321;-66
2022/08/15 00:55:39;;;;;;;9.53;3.80;;;20.40;21.90;;;;;;5058265;28;46345;-66
2022/08/15 00:58:05;;;;;;;12.37;4.00;;;20.20;32.90;;;;;;5055561;28;46692;-66
2022/08/15 01:00:37;;;;;;;7.10;4.37;;;20.30;22.50;;;;;;5059969;28;45823;-66
2022/08/15 01:03:09;;;;;;;6.30;3.80;;;20.60;32.50;;;;;;5056880;28;47237;-66
2022/08/15 01:05:34;;;;;;;6.83;3.80;;;20.10;32.30;;;;;;5056662;28;46418;-66
2022/08/15 01:08:01;;;;;;;9.00;3.53;;;20.30;23.00;;;;;;5059643;28;46433;-66
2022/08/15 01:10:27;;;;;;;8.13;3.93;;;;;;;;;;5060068;28;47173;-66
2022/08/15 01:12:53;;;;;;;7.33;4.00;;;20.30;23.10;;;;;;5058419;28;47118;-66
2022/08/15 01:15:19;;;;;;;6.57;3.87;;;20.10;27.30;;;;;;5059411;28;46377;-66
2022/08/15 01:17:45;;;;;;;15.33;4.27;;;;;;;;;;5058919;28;46572;-66
2022/08/15 01:20:19;;;;;;;7.40;4.10;;;21.00;23.80;;;;;;5062239;28;47414;-66
2022/08/15 01:22:58;;;;;;;6.20;3.83;;;20.30;23.70;;;;;;5061974;28;46366;-66
2022/08/15 01:25:28;;;;;;;13.53;4.23;;;20.30;23.90;;;;;;5062599;28;46418;-66
2022/08/15 01:28:27;;;;;;;5.90;4.03;;;20.30;24.10;;;;;;5062192;28;46448;-66
2022/08/15 01:31:03;;;;;;;7.47;4.17;;;20.30;24.00;;;;;;5058770;28;45914;-66
2022/08/15 01:33:31;;;;;;;14.90;4.20;;;20.10;34.60;;;;;;5063167;28;47189;-66
2022/08/15 01:35:59;;;;;;;15.43;4.50;;;;;;;;;;5062488;28;46446;-66
2022/08/15 01:38:37;;;;;;;10.83;3.97;;;20.30;24.10;;;;;;5061610;28;45892;-66
2022/08/15 01:41:15;;;;;;;6.00;3.97;;;20.30;24.80;;;;;;5063152;28;45819;-65
2022/08/15 01:43:56;;;;;;;6.63;3.80;;;20.20;24.30;;;;;;5060460;28;46465;-65
2022/08/15 01:46:23;;;;;;;5.90;4.00;;;20.20;24.40;;;;;;5060861;28;46546;-66
2022/08/15 01:48:53;;;;;;;6.63;4.03;;;20.10;24.50;;;;;;5062958;28;46342;-66
2022/08/15 01:51:19;;;;;;;8.63;4.10;;;20.10;24.50;;;;;;5062619;28;46394;-66
2022/08/15 01:53:54;;;;;;;8.80;4.20;;;20.10;24.70;;;;;;5062588;28;46334;-66
2022/08/15 01:56:33;;;;;;;8.27;4.50;;;20.10;24.70;;;;;;5061194;28;46021;-66
2022/08/15 01:59:03;;;;;;;5.77;4.00;;;20.00;36.20;;;;;;5061685;28;46270;-66
2022/08/15 02:02:06;;;;;;;10.03;3.87;;;20.10;25.80;;;;;;5060725;28;46215;-66
2022/08/15 02:04:35;;;;;;;7.07;4.03;;;19.90;25.90;;;;;;4977300;28;46733;-66
2022/08/15 02:07:06;;;;;;;8.43;3.50;;;20.40;26.30;;;;;;5046122;28;46396;-66
2022/08/15 02:09:32;;;;;;;11.30;4.30;;;20.10;25.90;;;;;;5061321;28;46379;-66
2022/08/15 02:12:00;;;;;;;8.00;3.93;;;20.10;26.10;;;;;;5063103;28;46363;-66
2022/08/15 02:14:27;;;;;;;9.97;4.27;;;19.70;38.10;;;;;;5058549;28;46464;-66
2022/08/15 02:16:53;;;;;;;7.30;4.20;;;;;;;;;;5058529;28;46321;-66
2022/08/15 02:19:19;;;;;;;10.83;3.97;;;20.20;39.00;;;;;;5062155;28;46338;-66
2022/08/15 02:21:47;;;;;;;12.80;4.93;;;20.10;26.50;;;;;;5060772;28;46379;-65
2022/08/15 02:24:21;;;;;;;6.67;4.00;;;20.10;26.20;;;;;;5062734;28;47059;-66
2022/08/15 02:26:48;;;;;;;11.43;4.93;;;19.80;27.40;;;;;;5058920;28;46426;-66
2022/08/15 02:29:14;;;;;;;11.53;3.73;;;20.20;25.70;;;;;;5058923;28;46491;-65
2022/08/15 02:31:41;;;;;;;6.43;3.50;;;20.20;25.70;;;;;;5061336;28;46764;-65
2022/08/15 02:34:07;;;;;;;8.87;4.10;;;20.30;32.30;;;;;;5060720;28;47011;-66
2022/08/15 02:36:36;;;;;;;6.67;3.80;;;20.20;25.40;;;;;;5059973;28;45782;-66
2022/08/15 02:39:07;;;;;;;7.03;3.37;;;20.10;27.40;;;;;;5059864;28;46201;-66
2022/08/15 02:41:37;;;;;;;7.97;3.83;;;20.60;25.50;;;;;;5058993;28;46550;-65
2022/08/15 02:44:04;;;;;;;6.33;2.93;;;20.60;28.80;;;;;;5062209;28;46632;-66
2022/08/15 02:46:30;;;;;;;8.00;3.77;;;;;;;;;;5062619;28;45844;-66
2022/08/15 02:48:58;;;;;;;7.03;3.43;;;20.20;24.90;;;;;;5060694;28;46271;-66
2022/08/15 02:51:25;;;;;;;11.40;4.37;;;20.20;25.00;;;;;;5061233;28;46404;-66
2022/08/15 02:53:52;;;;;;;8.67;4.40;;;20.40;36.90;;;;;;5060317;28;46766;-66
2022/08/15 02:56:22;;;;;;;7.03;3.77;;;20.20;25.00;;;;;;5061916;28;46384;-66
2022/08/15 02:58:49;;;;;;;7.10;3.63;;;20.20;24.90;;;;;;5059333;28;45897;-66
2022/08/15 03:01:15;;;;;;;7.83;3.67;;;20.40;25.00;;;;;;5061937;28;46369;-66
2022/08/15 03:03:44;;;;;;;5.10;3.20;;;20.20;24.90;;;;;;5058439;28;47197;-66
2022/08/15 03:06:12;;;;;;;7.43;3.43;;;20.20;24.80;;;;;;5060358;28;46682;-66
2022/08/15 03:08:40;;;;;;;8.30;3.80;;;20.20;24.80;;;;;;5060037;28;45854;-66
2022/08/15 03:11:08;;;;;;;10.70;3.93;;;20.20;24.80;;;;;;5061792;28;46330;-66
2022/08/15 03:13:35;;;;;;;7.70;3.80;;;20.10;32.00;;;;;;5057201;28;46988;-66
2022/08/15 03:16:03;;;;;;;8.43;4.40;;;20.60;25.40;;;;;;5059466;28;47486;-66
2022/08/15 03:18:32;;;;;;;10.23;3.90;;;20.50;29.70;;;;;;5060401;28;46303;-66
2022/08/15 03:20:59;;;;;;;6.70;3.77;;;;;;;;;;5058123;28;46381;-66
2022/08/15 03:23:27;;;;;;;6.83;3.40;;;20.00;28.60;;;;;;5059091;28;47904;-66
2022/08/15 03:25:56;;;;;;;12.03;4.10;;;20.10;24.90;;;;;;5059879;28;46343;-66
2022/08/15 03:28:24;;;;;;;8.20;3.40;;;20.10;24.80;;;;;;5057665;28;46427;-66
2022/08/15 03:30:51;;;;;;;6.60;3.60;;;20.10;25.00;;;;;;5060624;28;46353;-66
2022/08/15 03:33:18;;;;;;;7.93;3.13;;;20.30;28.20;;;;;;5059573;28;47216;-66
2022/08/15 03:35:48;;;;;;;7.50;3.90;;;20.10;25.20;;;;;;5060672;28;46399;-66
2022/08/15 03:38:14;;;;;;;7.00;3.20;;;19.80;34.40;;;;;;5059768;28;46451;-66
2022/08/15 03:40:42;;;;;;;9.50;3.90;;;20.30;26.30;;;;;;5058675;28;45875;-65
2022/08/15 03:43:14;;;;;;;8.37;3.70;;;20.20;37.40;;;;;;5060976;28;46268;-66
2022/08/15 03:45:48;;;;;;;10.27;3.10;;;19.90;26.20;;;;;;5061166;28;46386;-66
2022/08/15 03:48:14;;;;;;;5.60;3.37;;;;;;;;;;5060111;28;46429;-66
2022/08/15 03:50:41;;;;;;;12.70;3.60;;;;;;;;;;5058494;28;46566;-66
2022/08/15 03:53:07;;;;;;;7.07;3.30;;;19.90;28.80;;;;;;5060668;28;47180;-66
2022/08/15 03:55:35;;;;;;;6.97;3.80;;;19.80;34.00;;;;;;5059434;28;46369;-66
2022/08/15 03:58:01;;;;;;;11.97;3.90;;;20.10;34.70;;;;;;5060484;28;46646;-66
2022/08/15 04:00:34;;;;;;;6.67;3.17;;;19.80;26.20;;;;;;5061166;28;46322;-66
2022/08/15 04:03:21;;;;;;;7.17;3.47;;;19.70;26.20;;;;;;5060700;28;46378;-66
2022/08/15 04:05:50;;;;;;;8.97;4.30;;;19.60;38.40;;;;;;5058791;28;45777;-66
2022/08/15 04:08:17;;;;;;;6.40;3.53;;;19.90;34.10;;;;;;5057691;28;46348;-66
2022/08/15 04:10:45;;;;;;;10.20;3.83;;;;;;;;;;5059939;28;46469;-66
2022/08/15 04:13:11;;;;;;;5.63;3.10;;;;;;;;;;5060826;28;47226;-66
2022/08/15 04:15:38;;;;;;;7.83;3.50;;;19.80;26.70;;;;;;5059646;28;46388;-66
2022/08/15 04:18:05;;;;;;;14.33;3.37;;;20.00;38.80;;;;;;5054052;28;46446;-66
2022/08/15 04:20:31;;;;;;;9.10;3.70;;;;;;;;;;5060359;28;46439;-66
2022/08/15 04:22:57;;;;;;;7.90;3.80;;;19.80;38.10;;;;;;5060705;28;46516;-66
2022/08/15 04:25:27;;;;;;;6.20;3.13;;;19.80;26.70;;;;;;5060301;28;46347;-66
2022/08/15 04:27:56;;;;;;;8.63;3.40;;;19.90;27.20;;;;;;5060208;28;45946;-66
2022/08/15 04:30:24;;;;;;;5.43;3.33;;;19.60;26.80;;;;;;5059488;28;46333;-65
2022/08/15 04:32:51;;;;;;;7.77;3.30;;;19.70;26.80;;;;;;5060088;28;46311;-66
2022/08/15 04:35:17;;;;;;;6.67;3.37;;;;;;;;;;5059535;28;46266;-66
2022/08/15 04:37:43;;;;;;;5.03;3.33;;;19.50;38.30;;;;;;5059230;28;46442;-67
2022/08/15 04:40:12;;;;;;;5.90;3.17;;;19.60;27.00;;;;;;5059659;28;46381;-66
2022/08/15 04:42:49;;;;;;;7.60;3.50;;;19.50;32.30;;;;;;5059014;28;47648;-67
2022/08/15 04:45:15;;;;;;;5.70;3.43;;;;;;;;;;5059363;28;46396;-66
2022/08/15 04:47:41;;;;;;;5.10;3.20;;;20.00;29.00;;;;;;5058859;28;46333;-66
2022/08/15 04:50:07;;;;;;;13.83;3.60;;;;;;;;;;5059446;28;46140;-66
2022/08/15 04:52:33;;;;;;;8.93;3.47;;;;;;;;;;5062175;28;46010;-66
2022/08/15 04:54:59;;;;;;;6.60;3.30;;;;;;;;;;5063973;28;46028;-66
2022/08/15 04:57:26;;;;;;;6.73;3.87;;;;;;;;;;5061943;28;46422;-66
2022/08/15 04:59:51;;;;;;;11.73;3.83;;;20.10;29.00;;;;;;5059869;28;46497;-66
2022/08/15 05:02:24;;;;;;;6.90;3.60;;;19.80;27.70;;;;;;5063534;28;46406;-66
2022/08/15 05:04:49;;;;;;;8.53;3.30;;;19.60;36.30;;;;;;5063097;28;46420;-66
2022/08/15 05:07:16;;;;;;;12.70;3.43;;;19.60;34.60;;;;;;5061623;28;46894;-66
2022/08/15 05:09:43;;;;;;;6.63;3.20;;;;;;;;;;5061919;28;46394;-66
2022/08/15 05:12:09;;;;;;;8.83;2.87;;;;;;;;;;5062047;28;46438;-66
2022/08/15 05:14:36;;;;;;;8.13;3.90;;;19.50;28.10;;;;;;5063639;28;46597;-67
2022/08/15 05:17:02;;;;;;;6.27;3.50;;;;;;;;;;5061707;28;46267;-66
2022/08/15 05:19:28;;;;;;;8.00;3.73;;;;;;;;;;5062149;28;46753;-66
2022/08/15 05:21:53;;;;;;;8.47;3.30;;;;;;;;;;5062626;28;47283;-66
2022/08/15 05:24:19;;;;;;;7.37;3.40;;;;;;;;;;5062259;28;46707;-66
2022/08/15 05:26:45;;;;;;;6.50;3.43;;;;;;;;;;5061980;28;46434;-66
2022/08/15 05:29:11;;;;;;;5.87;3.20;;;;;;;;;;5062766;28;46471;-66
2022/08/15 05:31:37;;;;;;;6.03;3.70;;;19.50;36.70;;;;;;5063320;28;48285;-66
2022/08/15 05:34:03;;;;;;;7.10;4.30;;;19.60;42.10;;;;;;5062747;28;46382;-66
2022/08/15 05:36:33;;;;;;;9.03;6.10;;;20.10;38.80;;;;;;5059162;28;46587;-66
2022/08/15 05:39:05;;;;;;;5.73;3.40;;;19.70;29.60;;;;;;5062278;28;46604;-67
2022/08/15 05:41:45;;;;;;;8.17;3.07;;;19.80;29.70;;;;;;5061946;28;47415;-66
2022/08/15 05:44:11;;;;;;;5.20;2.87;;;;;;;;;;5060749;28;46437;-67
2022/08/15 05:47:09;;;;;;;5.90;3.43;;;19.80;29.80;;;;;;5063094;28;46321;-66
2022/08/15 05:49:53;;;;;;;7.07;2.67;;;19.80;29.90;;;;;;5061438;28;46436;-67
2022/08/15 05:52:36;;;;;;;6.27;3.20;;;19.80;30.10;;;;;;5060279;28;46500;-66
2022/08/15 05:55:10;;;;;;;7.37;2.87;;;19.50;39.30;;;;;;5062667;28;46399;-66
2022/08/15 05:57:53;;;;;;;5.67;3.53;;;19.60;34.70;;;;;;5061818;28;46390;-67
2022/08/15 06:00:19;;;;;;;6.77;3.20;;;;;;;;;;5062471;28;46429;-66
2022/08/15 06:02:58;;;;;;;5.80;3.00;;;19.70;30.60;;;;;;5059839;28;46362;-66
2022/08/15 06:05:29;;;;;;;4.70;2.70;;;19.70;42.20;;;;;;5062479;28;46453;-67
2022/08/15 06:07:58;;;;;;;7.43;3.20;;;19.60;39.60;;;;;;5060348;28;46433;-67
2022/08/15 06:10:33;;;;;;;7.80;3.40;;;19.50;30.60;;;;;;5063388;28;46381;-66
2022/08/15 06:13:12;;;;;;;9.00;2.73;;;19.60;30.80;;;;;;5061628;28;47042;-67
2022/08/15 06:15:47;;;;;;;7.53;3.30;;;19.50;38.60;;;;;;5061842;28;46385;-66
2022/08/15 06:18:17;;;;;;;4.43;3.00;;;19.70;30.80;;;;;;5062866;28;46440;-66
2022/08/15 06:20:48;;;;;;;5.23;2.90;;;19.80;43.80;;;;;;5062522;28;45878;-67
2022/08/15 06:23:17;;;;;;;5.93;3.03;;;19.50;35.40;;;;;;5062426;28;46689;-66
2022/08/15 06:26:11;;;;;;;4.80;2.60;;;20.00;44.30;;;;;;5062910;28;46440;-67
2022/08/15 06:29:05;;;;;;;6.10;3.10;;;19.70;30.80;;;;;;5059925;28;46369;-66
2022/08/15 06:31:31;;;;;;;8.60;2.60;;;;;;;;;;5061072;28;47345;-66
2022/08/15 06:34:25;;;;;;;4.67;2.97;;;19.70;30.80;;;;;;5061829;28;46214;-66
2022/08/15 06:37:15;;;;;;;6.60;2.50;;;19.50;37.50;;;;;;5059376;28;46400;-66
2022/08/15 06:39:53;;;;;;;4.57;2.73;;;19.70;31.00;;;;;;5062904;28;46239;-66
2022/08/15 06:42:28;;;;;;;5.17;2.70;;;19.80;31.10;;;;;;5061537;28;46387;-66
2022/08/15 06:44:57;;;;;;;5.73;2.30;;;19.80;30.90;;;;;;5062141;28;46608;-67
2022/08/15 06:47:27;;;;;;;5.77;3.00;;;19.90;30.90;;;;;;5061164;28;46375;-66
2022/08/15 06:49:59;;;;;;;4.67;2.87;;;20.00;30.90;;;;;;5057045;28;46460;-66
2022/08/15 06:52:26;;;;;;;5.07;2.80;;;20.00;30.90;;;;;;5061896;28;46348;-66
2022/08/15 06:54:52;;;;;;;6.43;2.87;;;;;;;;;;5059457;28;47024;-66
2022/08/15 06:57:40;;;;;;;4.57;2.90;;;20.20;30.80;;;;;;5061817;28;46528;-66
2022/08/15 07:00:14;;;;;;;4.50;3.20;;;20.50;36.90;;;;;;5061306;28;46432;-66
2022/08/15 07:02:54;;;;;;;9.60;3.10;;;20.70;38.30;;;;;;5060739;28;46421;-66
2022/08/15 07:05:27;;;;;;;4.77;2.90;;;20.70;30.60;;;;;;5060046;28;47012;-66
2022/08/15 07:08:01;;;;;;;8.60;2.90;;;20.80;30.50;;;;;;5059667;28;46409;-66
2022/08/15 07:10:27;;;;;;;3.97;2.57;;;;;;;;;;5060301;28;45875;-66
2022/08/15 07:12:53;;;;;;;4.37;3.00;;;;;;;;;;5061109;28;46777;-66
2022/08/15 07:15:38;;;;;;;5.60;3.30;;;21.50;29.90;;;;;;5059981;28;46435;-66
2022/08/15 07:18:22;;;;;;;8.83;2.17;;;21.70;37.70;;;;;;5061145;28;46393;-66
2022/08/15 07:20:48;;;;;;;4.23;2.50;;;22.50;41.90;;;;;;5058686;28;46603;-66
2022/08/15 07:23:25;;;;;;;3.17;2.13;;;22.70;32.00;;;;;;5060833;28;46291;-66
2022/08/15 07:25:53;;;;;;;4.13;2.40;;;22.70;31.30;;;;;;5059912;28;47253;-66
2022/08/15 07:28:25;;;;;;;3.63;2.27;;;22.50;39.70;;;;;;5060264;28;46471;-66
2022/08/15 07:31:05;;;;;;;5.73;2.53;;;22.90;26.90;;;;;;5060228;28;46389;-66
2022/08/15 07:33:39;;;;;;;4.83;2.40;;;22.90;38.60;;;;;;5057124;28;46437;-66
2022/08/15 07:36:13;;;;;;;3.87;2.43;;;;;;;;;;5067461;27;46385;-66
2022/08/15 07:38:39;;;;;;;4.77;2.40;;;;;;;;;;5055741;28;46449;-66
2022/08/15 07:41:21;;;;;;;5.50;2.50;;;22.90;26.30;;;;;;5056771;28;46362;-66
2022/08/15 07:43:49;;;;;;;3.90;1.97;;;23.00;26.00;;;;;;5052330;28;46584;-66
2022/08/15 07:46:15;;;;;;;6.40;2.37;;;;;;;;;;5055788;28;46433;-67
2022/08/15 07:48:42;;;;;;;4.27;2.50;;;23.40;25.40;;;;;;5055951;28;46637;-66
2022/08/15 07:51:25;;;;;;;4.13;2.10;;;23.60;25.40;;;;;;5055178;28;46319;-66
2022/08/15 07:53:59;;;;;;;8.10;2.40;;;23.40;36.50;;;;;;5055698;28;45864;-66
2022/08/15 07:56:28;;;;;;;4.20;2.40;;;23.90;24.30;;;;;;5055646;28;46351;-66
2022/08/15 07:59:09;;;;;;;3.43;1.93;;;24.00;24.40;;;;;;5053712;28;46766;-66
2022/08/15 08:01:35;;;;;;;4.13;2.60;;;;;;;;;;5056916;28;46529;-66
2022/08/15 08:04:09;;;;;;;5.80;2.53;;;24.10;24.00;;;;;;5057125;28;45989;-66
2022/08/15 08:06:55;;;;;;;4.60;2.33;;;24.10;23.80;;;;;;5053797;28;46477;-66
2022/08/15 08:09:38;;;;;;;11.00;4.33;;;24.10;23.80;;;;;;5055447;28;46682;-66
2022/08/15 08:12:19;;;;;;;6.30;2.47;;;24.10;33.70;;;;;;5055282;28;46431;-66
2022/08/15 08:15:26;;;;;;;5.07;2.90;;;23.90;32.30;;;;;;5055103;28;46761;-66
2022/08/15 08:18:06;;;;;;;4.40;2.50;;;23.80;24.30;;;;;;5047341;28;47879;-66
2022/08/15 08:20:32;;;;;;;5.10;3.00;;;;;;;;;;5054835;28;46373;-66
2022/08/15 08:23:09;;;;;;;5.70;2.60;;;23.80;30.00;;;;;;5055035;28;46402;-67
2022/08/15 08:25:49;;;;;;;4.00;2.30;;;23.80;24.30;;;;;;5057557;28;46657;-67
2022/08/15 08:28:28;;;;;;;8.90;2.87;;;24.00;23.80;;;;;;5052603;28;48102;-66
2022/08/15 08:30:55;;;;;;;4.90;2.47;;;;;;;;;;5056748;28;46544;-66
2022/08/15 08:33:50;;;;;;;3.73;1.80;;;24.10;31.40;;;;;;5056095;28;46403;-66
2022/08/15 08:36:37;;;;;;;4.63;2.93;;;24.20;27.00;;;;;;5056245;28;46503;-66
2022/08/15 08:39:27;;;;;;;3.50;2.30;;;24.70;22.70;;;;;;5050344;28;46488;-67
2022/08/15 08:42:20;;;;;;;8.50;2.20;;;24.90;22.20;;;;;;5054608;28;46473;-65
2022/08/15 08:44:54;;;;;;;5.03;2.90;;;25.00;21.80;;;;;;5055009;28;46401;-66
2022/08/15 08:47:49;;;;;;;7.50;2.47;;;25.30;31.20;;;;;;5042184;28;46378;-66
2022/08/15 08:50:15;;;;;;;6.50;2.80;;;;;;;;;;5041564;28;48525;-66
2022/08/15 08:53:07;;;;;;;6.70;2.63;;;25.50;20.80;;;;;;5050821;28;46043;-65
2022/08/15 08:55:47;;;;;;;4.00;2.07;;;25.70;20.40;;;;;;5042363;28;46435;-66
2022/08/15 08:58:24;;;;;;;6.50;2.97;;;25.70;20.00;;;;;;5039112;28;46520;-66
2022/08/15 09:00:51;;;;;;;4.13;2.30;;;25.30;20.00;;;;;;5037058;28;46315;-67
2022/08/15 09:03:29;;;;;;;6.73;2.10;;;25.10;30.00;;;;;;5039786;28;46536;-67
2022/08/15 09:05:57;;;;;;;4.60;2.63;;;24.70;29.80;;;;;;5040723;28;45796;-67
2022/08/15 09:08:53;;;;;;;5.10;2.67;;;25.10;20.60;;;;;;5039993;28;46384;-66
2022/08/15 09:11:23;;;;;;;7.00;2.20;;;24.80;27.00;;;;;;5038235;28;48004;-66
2022/08/15 09:13:49;;;;;;;6.80;2.33;;;24.80;21.20;;;;;;5040132;28;46481;-67
2022/08/15 09:16:26;;;;;;;4.83;2.30;;;25.20;28.90;;;;;;5039569;28;46574;-66
2022/08/15 09:19:09;;;;;;;4.47;2.70;;;25.90;19.40;;;;;;5040581;28;46516;-66
2022/08/15 09:21:35;;;;;;;15.70;2.57;;;;;;;;;;5038571;28;46473;-67
2022/08/15 09:24:03;;;;;;;4.33;1.83;;;26.60;17.20;;;;;;5042931;28;46386;-68
2022/08/15 09:26:50;;;;;;;6.60;1.67;;;26.50;16.30;;;;;;5040539;28;46595;-68
2022/08/15 09:29:29;;;;;;;3.60;1.80;;;26.80;15.50;;;;;;5043924;28;46473;-68
2022/08/15 09:31:55;;;;;;;3.37;2.00;;;;;;;;;;5040229;28;48251;-67
2022/08/15 09:34:56;;;;;;;2.97;1.83;;;27.10;13.90;;;;;;5038298;28;46583;-66
2022/08/15 09:38:03;;;;;;;3.37;1.87;;;26.90;20.70;;;;;;5024648;28;46363;-66
2022/08/15 09:41:00;;;;;;;3.80;2.17;;;26.70;12.90;;;;;;5039687;28;46480;-68
2022/08/15 09:43:38;;;;;;;3.33;2.00;;;26.30;22.20;;;;;;5038551;28;47259;-68
2022/08/15 09:46:10;;;;;;;3.53;2.00;;;26.30;22.20;;;;;;5040151;28;46454;-68
2022/08/15 09:49:04;;;;;;;3.70;2.20;;;27.20;22.70;;;;;;5040975;28;45826;-67
2022/08/15 09:51:57;;;;;;;3.57;2.00;;;27.30;20.10;;;;;;5025944;28;46702;-68
2022/08/15 09:54:25;;;;;;;5.10;2.00;;;27.40;12.30;;;;;;5040751;28;46189;-67
2022/08/15 09:57:11;;;;;;;4.40;2.27;;;27.40;20.60;;;;;;5041785;28;46447;-68
2022/08/15 09:59:38;;;;;;;10.13;1.90;;;;;;;;;;5028688;28;45903;-67
2022/08/15 10:02:20;;;;;;;2.90;1.60;;;27.90;18.40;;;;;;5039442;28;46668;-67
2022/08/15 10:04:49;;;;;;;2.97;1.73;;;28.80;11.70;;;;;;5040211;28;46358;-68
2022/08/15 10:07:15;;;;;;;3.77;2.00;;;;;;;;;;5038916;28;45764;-67
2022/08/15 10:10:00;;;;;;;3.37;1.87;;;28.80;9.90;;;;;;5038833;28;46482;-68
2022/08/15 10:12:26;;;;;;;4.40;2.03;;;28.90;9.80;;;;;;5040782;28;46909;-67
2022/08/15 10:14:52;;;;;;;3.60;1.73;;;29.10;12.10;;;;;;5040127;28;46074;-68
2022/08/15 10:17:33;;;;;;;5.27;2.57;;;28.00;8.60;;;;;;5037831;28;46351;-68
2022/08/15 10:20:18;;;;;;;3.87;2.00;;;27.70;9.20;;;;;;5038358;28;45860;-69
2022/08/15 10:22:44;;;;;;;3.10;1.70;;;;;;;;;;5038643;28;46432;-66
2022/08/15 10:25:22;;;;;;;4.20;1.87;;;27.90;15.30;;;;;;5039598;28;47141;-68
2022/08/15 10:27:54;;;;;;;4.07;2.17;;;27.60;15.90;;;;;;5038984;28;46361;-67
2022/08/15 10:30:24;;;;;;;6.90;2.33;;;27.70;8.60;;;;;;5039932;28;46477;-69
2022/08/15 10:32:52;;;;;;;4.50;2.40;;;;;;;;;;5039506;28;46332;-67
2022/08/15 10:35:24;;;;;;;5.33;2.10;;;27.90;8.60;;;;;;5039203;28;47295;-68
2022/08/15 10:37:51;;;;;;;4.23;1.90;;;27.70;8.40;;;;;;5038618;28;46609;-68
2022/08/15 10:40:47;;;;;;;3.80;1.90;;;27.30;15.50;;;;;;5041064;28;46388;-68
2022/08/15 10:43:13;;;;;;;3.50;2.30;;;;;;;;;;5037207;28;46339;-69
2022/08/15 10:45:54;;;;;;;4.00;2.00;;;28.00;8.20;;;;;;5040086;28;47189;-68
2022/08/15 10:48:24;;;;;;;3.70;1.97;;;28.40;13.80;;;;;;5039708;28;46421;-67
2022/08/15 10:51:18;;;;;;;4.57;2.60;;;28.60;7.20;;;;;;5035785;28;46310;-67
2022/08/15 10:53:55;;;;;;;7.70;2.40;;;29.00;6.70;;;;;;5039950;28;47218;-67
2022/08/15 10:56:26;;;;;;;3.77;2.27;;;29.60;14.30;;;;;;5038472;28;46445;-67
2022/08/15 10:59:02;;;;;;;3.37;2.30;;;29.20;6.20;;;;;;5039090;28;46381;-69
2022/08/15 11:01:33;;;;;;;3.40;2.23;;;29.40;5.90;;;;;;5037561;28;46295;-68
2022/08/15 11:04:05;;;;;;;3.37;1.90;;;29.90;6.50;;;;;;5039372;28;46424;-69
2022/08/15 11:06:37;;;;;;;4.57;2.30;;;29.50;5.10;;;;;;5037514;28;46641;-67
2022/08/15 11:09:09;;;;;;;5.90;2.03;;;29.50;5.20;;;;;;5040877;28;46440;-68
2022/08/15 11:11:42;;;;;;;4.47;2.00;;;29.60;5.10;;;;;;5035577;28;46351;-66
2022/08/15 11:14:19;;;;;;;5.63;2.30;;;29.30;13.40;;;;;;5040316;28;46381;-68
2022/08/15 11:16:54;;;;;;;4.63;2.20;;;29.70;5.10;;;;;;5039493;28;47062;-67
2022/08/15 11:19:32;;;;;;;3.90;1.90;;;29.70;5.10;;;;;;5037656;28;46469;-68
2022/08/15 11:22:03;;;;;;;4.50;2.47;;;29.80;5.20;;;;;;5035067;28;46320;-68
2022/08/15 11:24:33;;;;;;;3.27;2.00;;;29.20;11.90;;;;;;5036246;28;46349;-68
2022/08/15 11:27:17;;;;;;;5.73;2.10;;;29.10;4.80;;;;;;5037898;28;46459;-68
2022/08/15 11:29:44;;;;;;;3.90;2.40;;;28.70;12.00;;;;;;5036726;28;46833;-69
2022/08/15 11:32:13;;;;;;;4.43;2.00;;;29.10;4.80;;;;;;5035624;28;46350;-68
2022/08/15 11:34:46;;;;;;;3.50;1.93;;;29.00;4.70;;;;;;5033845;28;46429;-69
2022/08/15 11:37:18;;;;;;;3.23;2.17;;;28.90;10.70;;;;;;5037053;28;46512;-69
2022/08/15 11:39:52;;;;;;;7.70;2.70;;;29.00;5.30;;;;;;5035114;28;46501;-68
2022/08/15 11:42:20;;;;;;;3.67;2.13;;;29.00;5.60;;;;;;5037749;28;46303;-69
2022/08/15 11:45:03;;;;;;;3.70;2.20;;;29.10;6.20;;;;;;5038770;28;46620;-68
2022/08/15 11:47:32;;;;;;;4.50;2.17;;;29.30;5.20;;;;;;5038147;28;46327;-68
2022/08/15 11:50:03;;;;;;;7.83;2.97;;;29.20;10.80;;;;;;5038584;28;46481;-67
2022/08/15 11:52:33;;;;;;;4.03;1.97;;;29.70;5.10;;;;;;5039121;28;46408;-69
2022/08/15 11:55:12;;;;;;;4.23;1.80;;;29.60;5.10;;;;;;5032202;28;46353;-67
2022/08/15 11:57:45;;;;;;;4.30;2.07;;;29.50;5.00;;;;;;5036815;28;47131;-68
2022/08/15 12:00:28;;;;;;;3.43;2.40;;;29.80;5.70;;;;;;5038849;28;46459;-65
2022/08/15 12:02:55;;;;;;;3.93;2.27;;;29.30;5.80;;;;;;5038873;28;46392;-68
2022/08/15 12:05:33;;;;;;;4.10;2.03;;;29.00;6.70;;;;;;5039056;28;46311;-68
2022/08/15 12:08:01;;;;;;;4.63;2.47;;;28.90;6.10;;;;;;5037177;28;46548;-67
2022/08/15 12:10:37;;;;;;;3.83;2.03;;;29.50;10.50;;;;;;5038584;28;46410;-67
2022/08/15 12:13:04;;;;;;;3.60;2.30;;;29.20;5.20;;;;;;5037769;28;46514;-67
2022/08/15 12:15:32;;;;;;;3.60;2.17;;;29.00;5.20;;;;;;5041870;28;46496;-66
2022/08/15 12:18:05;;;;;;;3.93;2.30;;;29.30;13.70;;;;;;5037649;28;46453;-67
2022/08/15 12:20:45;;;;;;;4.57;2.13;;;28.90;6.40;;;;;;5035610;28;45880;-67
2022/08/15 12:23:42;;;;;;;3.43;2.30;;;28.90;5.60;;;;;;5040927;28;46437;-70
2022/08/15 12:26:11;;;;;;;9.30;2.17;;;28.80;11.50;;;;;;5037545;28;46511;-69
2022/08/15 12:28:40;;;;;;;3.33;2.00;;;28.30;5.70;;;;;;5045950;28;46303;-67
2022/08/15 12:31:06;;;;;;;4.10;1.80;;;;;;;;;;5042103;28;46537;-68
2022/08/15 12:33:31;;;;;;;4.77;2.03;;;28.40;7.70;;;;;;5040186;28;46454;-69
2022/08/15 12:35:58;;;;;;;5.30;1.97;;;28.40;13.50;;;;;;5041675;28;46585;-66
2022/08/15 12:38:24;;;;;;;4.80;2.30;;;27.70;7.50;;;;;;5039676;28;46449;-66
2022/08/15 12:40:50;;;;;;;5.20;2.40;;;28.60;11.00;;;;;;5043290;28;46488;-67
2022/08/15 12:43:17;;;;;;;3.53;2.23;;;28.70;9.40;;;;;;5042203;28;46426;-67
2022/08/15 12:45:43;;;;;;;4.20;2.10;;;;;;;;;;5042841;28;46657;-66
2022/08/15 12:48:22;;;;;;;4.27;2.30;;;28.10;10.20;;;;;;5043286;28;48153;-66
2022/08/15 12:50:48;;;;;;;3.63;2.37;;;;;;;;;;5036929;28;46445;-67
2022/08/15 12:53:14;;;;;;;3.80;2.10;;;28.20;6.90;;;;;;5042340;28;46765;-68
2022/08/15 12:55:42;;;;;;;5.00;2.43;;;28.40;5.20;;;;;;5042048;28;46464;-69
2022/08/15 12:58:10;;;;;;;3.77;2.30;;;28.20;11.80;;;;;;5039904;28;46877;-67
2022/08/15 13:00:36;;;;;;;5.50;2.00;;;;;;;;;;5042121;28;46643;-68
2022/08/15 13:03:15;;;;;;;5.07;2.17;;;28.70;4.60;;;;;;5041239;28;45879;-68
2022/08/15 13:05:42;;;;;;;5.10;2.20;;;29.00;10.80;;;;;;5041092;28;46344;-68
2022/08/15 13:08:09;;;;;;;5.77;2.00;;;;;;;;;;5040885;28;46380;-66
2022/08/15 13:10:35;;;;;;;5.63;2.03;;;;;;;;;;5041605;28;46620;-67
2022/08/15 13:13:01;;;;;;;2.87;1.93;;;;;;;;;;5040647;28;46544;-66
2022/08/15 13:15:27;;;;;;;3.80;2.07;;;;;;;;;;5037850;28;46396;-67
2022/08/15 13:17:55;;;;;;;3.97;2.27;;;;;;;;;;5037985;28;47000;-66
2022/08/15 13:25:51;;;;;;;4.00;1.97;;;30.00;4.70;;;;;;5041099;28;46378;-66
2022/08/15 13:28:17;;;;;;;3.80;2.43;;;29.70;12.40;;;;;;5036447;28;47077;-67
2022/08/15 13:30:43;;;;;;;4.03;2.50;;;29.70;10.00;;;;;;5043559;28;46280;-67
2022/08/15 13:33:09;;;;;;;6.20;2.20;;;29.90;12.20;;;;;;5041125;28;45934;-66
2022/08/15 13:35:35;;;;;;;4.63;2.10;;;29.70;3.70;;;;;;5040459;28;45863;-67
2022/08/15 13:38:02;;;;;;;4.03;2.30;;;;;;;;;;5038880;28;48112;-67